Station info - map view · info · telemetry · weather · raw · status · beacons · messages · bulletins · browse · moving · my account
Callsign, ship name or locator: Clear       
It is possible to search using wildcards (*?) after a prefix. Example: OH*
APRS station OE3LKW-14 - show graphs
Map loading...
Comment: 438.600MHz
Mic-E message: En route
Location: 48°24.64' N 15°36.36' E - locator JN78TJ28RN - show map - static map
0.8 miles North bearing 20° from Weinzierl bei Krems, Lower Austria, Austria [?]
3.0 miles Southeast bearing 121° from Senftenberg, Politischer Bezirk Krems an der Donau, Lower Austria, Austria
37.8 miles West bearing 292° from Vienna, Politischer Bezirk Wien (Stadt), Vienna, Austria
71.3 miles West bearing 285° from Bratislava, Bratislavský, Slovakia
Last position: 2021-06-12 14:49:38 EDT (3d 2h42m ago)
2021-06-12 20:49:38 CEST local time at Weinzierl bei Krems, Austria [?]
Altitude: 794 ft
Course: 192°
Speed: 0 MPH
Device: Kenwood: TM-D710 (rig)
Last path: OE3LKW-14>TX2T64 via WIDE1-1,WIDE2-1,qAR,OE3PDB-3 (good)
Positions stored: 42979
Packet rate: 144 seconds between packets on average during 863 seconds.
Other SSIDs: OE3LKW OE3LKW-5 OE3LKW-7 OE3LKW-9
Stations near current position of OE3LKW-14 - show more
callsign distance last heard - EDT      callsign distance last heard - EDT
OE3LKW-70.5 miles 315°2021-06-15 07:18:00 OE3LKW0.5 miles 316°2021-06-15 11:18:43
DW99361.2 miles 67°2021-06-15 13:45:09 OE3KJO-DP1.4 miles 20°2021-06-04 23:56:21
OE3XKQ1.5 miles 305°2021-06-15 17:00:02 OE3ESA-71.8 miles 220°2021-06-06 11:04:40
OE3MUC-91.9 miles 289°2021-06-14 13:37:29 PS-OE3MUC2.0 miles 286°2021-06-04 16:02:12
P-OE3MUC2.0 miles 286°2021-06-15 17:01:24 KS1NOD2.0 miles 286°2021-06-06 12:25:57
OE3MUC-152.0 miles 286°2021-06-15 17:29:52 OE3MUC-142.0 miles 286°2021-06-15 17:04:14
OE3MUC2.0 miles 286°2021-06-15 17:21:04 OE3MUC-82.0 miles 286°2021-06-15 12:59:01
OE1JTB-123.0 miles 359°2021-05-31 10:02:13 TS-03D4.4 miles 95°2021-06-12 11:05:10
OE3TFL4.8 miles 226°2021-05-22 11:07:22 S25404236.2 miles 351°2021-05-23 23:58:00
OE3XSA6.4 miles 284°2021-06-15 17:00:01 OE3AKB-76.6 miles 191°2021-06-13 10:58:00
Stations which heard OE3LKW-14 directly on radio –
callsign pkts first heard - EDT last heard longest (tx => rx) longest at - EDT
OE1XQR 4 2021-06-04 03:14:19 2021-06-11 03:59:03 JN88EG > JN88EE 7.5 miles 174° 2021-06-04 03:14:19
OE6XTR 1 2021-06-04 03:08:45 2021-06-04 03:08:45 JN88DI > JN77VN 59.2 miles 204° 2021-06-04 03:08:45
OE1XDS-10 7 2021-06-11 03:56:45 2021-06-11 04:10:11 JN88EE > JN88EF 2.6 miles 0° 2021-06-11 03:56:45
OE3MZC-2 8 2021-06-04 02:39:44 2021-06-12 12:43:11 JN78SJ > JN78XE 23.8 miles 124° 2021-06-12 12:43:11
OE1IWA-11 3 2021-06-04 03:09:14 2021-06-04 03:28:02 JN88DI > JN88DD 14.7 miles 185° 2021-06-04 03:09:14
OE1TRB-15 7 2021-06-04 06:18:20 2021-06-11 06:34:43 JN88DI > JN88EF 7.3 miles 160° 2021-06-11 06:34:43
OE3BUB-10 27 2021-06-04 03:07:44 2021-06-11 06:35:27 JN88DI > JN88FG 9.6 miles 127° 2021-06-04 06:44:54
OE3PDB-3 29 2021-06-04 02:33:56 2021-06-12 14:49:38 JN78SJ > JN88BG 25.8 miles 112° 2021-06-12 14:42:17
OE3XFW-10 1 2021-06-11 08:13:46 2021-06-11 08:13:46 JN78TJ > JN78XD 26.0 miles 136° 2021-06-11 08:13:46
OE3XLR 16 2021-06-04 02:35:24 2021-06-12 14:38:53 JN88DI > JN77TX 41.4 miles 228° 2021-06-11 06:36:53
OE3PDB-10 30 2021-06-04 02:33:56 2021-06-12 14:49:38 JN78TJ > JN88BG 25.4 miles 116° 2021-06-04 08:39:35
OE3XWJ-10 24 2021-06-04 02:40:44 2021-06-12 14:47:39 JN88CJ > JN78QI 41.3 miles 266° 2021-06-04 06:46:34
OE3SMX-10 7 2021-06-04 02:44:02 2021-06-12 14:43:27 JN78SJ > JN78VI 12.1 miles 109° 2021-06-12 14:43:27
OE1XUR-10 4 2021-06-04 03:32:32 2021-06-11 06:31:48 JN88EH > JN88ED 10.6 miles 167° 2021-06-11 06:31:48
OE1XUR 36 2021-06-04 03:08:45 2021-06-11 06:35:27 JN88DI > JN88ED 14.5 miles 165° 2021-06-11 06:35:27
OE1IWA-12 3 2021-06-04 03:36:37 2021-06-11 03:56:11 JN88EF > JN88ED 5.7 miles 178° 2021-06-04 03:36:37
OE3WFC-10 9 2021-06-04 03:01:16 2021-06-11 06:46:36 JN88BI > JN88CJ 5.7 miles 76° 2021-06-11 06:46:36
OE3PDB-1 5 2021-06-04 02:48:47 2021-06-04 07:03:11 JN78WJ > JN88BF 14.3 miles 140° 2021-06-04 07:03:11
OE1TRI-10 1 2021-06-04 06:22:28 2021-06-04 06:22:28 JN88EF > JN88EF 194.3 yards 340° 2021-06-04 06:22:28
OE3PDB-6 1 2021-06-04 02:55:48 2021-06-04 02:55:48 JN88AI > JN88BF 8.3 miles 167° 2021-06-04 02:55:48
OE1XAR-14 23 2021-06-04 03:10:54 2021-06-11 06:32:48 JN88EE > JN88EH 9.1 miles 10° 2021-06-11 03:56:11

Only position packets which were originated by the station are shown here. The range statistics show some extra long hops, because some digipeaters do not correctly add themselves to the digipeater path. Please check the raw packets.
About this site
This page shows real-time information collected from the Automatic Position Reporting System Internet network (APRS-IS). APRS is used by amateur (ham) radio operators to transmit real-time position information, weather data, telemetry and messages over the radio. A vehicle equipped with a GPS receiver, a VHF transmitter or HF transceiver and a small computer device called a tracker transmits it's location, speed and course in a small data packet, which is then received by a nearby iGate receiving site which forwards the packet on the Internet. Systems connected to the Internet can send information on the APRS-IS without a radio transmitter, or collect and display information transmitted anywhere in the world.
User guide · FAQ · Blog · Discussion group · Linking to aprs.fi · AIS sites · Service status · Database statistics · Advertising on aprs.fi · Technical details · API · Change log · Planned changes · Credits and thanks · Terms Of Service · iPhone/iPad APRS